Time;durP1;ratioP1;P1;durP2;ratioP2;P2;SDS_P1;SDS_P2;PMS_P1;PMS_P2;Temp;Humidity;BMP_temperature;BMP_pressure;BME280_temperature;BME280_humidity;BME280_pressure;Samples;Min_cycle;Max_cycle;Signal;HPM_P1;HPM_P2
2024/02/11 00:02:05;;;;;;;11.52;9.20;;;;;;;;;;5057630;28;20052;-73
2024/02/11 00:04:31;;;;;;;14.45;10.63;;;;;;;;;;5042245;28;20055;-74
2024/02/11 00:06:58;;;;;;;14.18;10.75;;;;;;;;;;5046388;28;20048;-76
2024/02/11 00:09:24;;;;;;;12.85;9.68;;;;;;;;;;5059571;28;20088;-75
2024/02/11 00:11:54;;;;;;;12.73;10.30;;;;;;;;;;5058605;28;20370;-75
2024/02/11 00:14:20;;;;;;;12.77;10.02;;;;;;;;;;5044458;28;20083;-75
2024/02/11 00:16:47;;;;;;;12.50;10.07;;;;;;;;;;5052888;28;20056;-75
2024/02/11 00:19:13;;;;;;;12.07;9.98;;;;;;;;;;5063995;28;20411;-75
2024/02/11 00:21:41;;;;;;;12.23;10.38;;;;;;;;;;5059236;28;20052;-75
2024/02/11 00:24:08;;;;;;;13.57;10.20;;;;;;;;;;5063587;28;20076;-76
2024/02/11 00:26:34;;;;;;;11.88;10.40;;;;;;;;;;5051702;28;20045;-75
2024/02/11 00:29:00;;;;;;;12.07;9.75;;;;;;;;;;5053609;28;20044;-76
2024/02/11 00:31:27;;;;;;;12.88;10.68;;;;;;;;;;5065622;28;20055;-75
2024/02/11 00:33:55;;;;;;;13.65;10.27;;;;;;;;;;5054137;28;20041;-75
2024/02/11 00:36:22;;;;;;;;;;;;;;;;;;5063462;28;20634;-75
2024/02/11 00:38:50;;;;;;;12.88;10.15;;;;;;;;;;5061001;28;19926;-75
2024/02/11 00:41:16;;;;;;;12.30;10.70;;;;;;;;;;5061506;28;20080;-75
2024/02/11 00:43:43;;;;;;;12.10;10.32;;;;;;;;;;5058592;28;20048;-75
2024/02/11 00:46:09;;;;;;;13.45;10.38;;;;;;;;;;5041089;28;20110;-75
2024/02/11 00:48:36;;;;;;;13.15;10.00;;;;;;;;;;5061027;28;20850;-75
2024/02/11 00:51:03;;;;;;;13.00;10.52;;;;;;;;;;5057261;28;20044;-75
2024/02/11 00:53:29;;;;;;;14.27;10.13;;;;;;;;;;5050662;28;20049;-75
2024/02/11 00:55:55;;;;;;;12.70;10.75;;;;;;;;;;5040133;28;20051;-74
2024/02/11 00:58:22;;;;;;;12.52;10.77;;;;;;;;;;5043959;28;20060;-75
2024/02/11 01:00:49;;;;;;;12.85;10.45;;;;;;;;;;5054156;28;20068;-74
2024/02/11 01:03:15;;;;;;;12.68;10.88;;;;;;;;;;5049816;28;20045;-74
2024/02/11 01:05:44;;;;;;;14.27;11.10;;;;;;;;;;5061736;28;20548;-74
2024/02/11 01:08:11;;;;;;;12.98;10.80;;;;;;;;;;5067255;28;20044;-75
2024/02/11 01:10:38;;;;;;;12.75;10.65;;;;;;;;;;5055593;28;20052;-75
2024/02/11 01:13:05;;;;;;;16.15;10.95;;;;;;;;;;5061246;28;20084;-74
2024/02/11 01:15:32;;;;;;;12.30;10.15;;;;;;;;;;5057799;28;20425;-74
2024/02/11 01:17:58;;;;;;;11.93;10.00;;;;;;;;;;5063099;28;20483;-75
2024/02/11 01:20:24;;;;;;;11.40;9.77;;;;;;;;;;5038845;28;20499;-75
2024/02/11 01:22:54;;;;;;;15.10;10.88;;;;;;;;;;5054634;28;20052;-74
2024/02/11 01:25:20;;;;;;;13.05;10.18;;;;;;;;;;5059532;28;20051;-74
2024/02/11 01:27:47;;;;;;;11.27;8.40;;;;;;;;;;5071988;28;20154;-74
2024/02/11 01:30:14;;;;;;;13.35;9.73;;;;;;;;;;5082161;28;20508;-75
2024/02/11 01:32:40;;;;;;;11.57;9.65;;;;;;;;;;5067851;28;20106;-75
2024/02/11 01:35:07;;;;;;;14.15;10.48;;;;;;;;;;5082773;28;20140;-76
2024/02/11 01:37:34;;;;;;;13.60;10.77;;;;;;;;;;5047704;28;20052;-75
2024/02/11 01:40:00;;;;;;;12.07;10.77;;;;;;;;;;5088182;28;20048;-75
2024/02/11 01:42:27;;;;;;;12.32;9.48;;;;;;;;;;5066530;28;20135;-75
2024/02/11 01:44:54;;;;;;;12.70;10.27;;;;;;;;;;5070191;28;20044;-75
2024/02/11 01:47:20;;;;;;;13.90;10.27;;;;;;;;;;5067090;28;20101;-75
2024/02/11 01:49:47;;;;;;;12.38;10.52;;;;;;;;;;5080690;28;20058;-75
2024/02/11 01:52:15;;;;;;;16.33;10.90;;;;;;;;;;5058184;28;20052;-75
2024/02/11 01:54:41;;;;;;;12.83;10.33;;;;;;;;;;5065146;28;20047;-72
2024/02/11 01:57:08;;;;;;;12.55;10.38;;;;;;;;;;5057644;28;20052;-73
2024/02/11 01:59:38;;;;;;;13.38;10.80;;;;;;;;;;5057810;28;20159;-73
2024/02/11 02:02:08;;;;;;;12.95;10.50;;;;;;;;;;5082509;28;20052;-73
2024/02/11 02:04:35;;;;;;;11.10;9.75;;;;;;;;;;5074832;28;20051;-72
2024/02/11 02:07:02;;;;;;;12.35;10.20;;;;;;;;;;5075493;28;20087;-71
2024/02/11 02:09:31;;;;;;;12.48;10.95;;;;;;;;;;5070784;28;20071;-72
2024/02/11 02:11:58;;;;;;;12.50;10.63;;;;;;;;;;5086162;28;20162;-72
2024/02/11 02:14:24;;;;;;;12.73;10.73;;;;;;;;;;5057471;28;20047;-71
2024/02/11 02:16:50;;;;;;;12.32;10.00;;;;;;;;;;5075222;28;20048;-72
2024/02/11 02:19:17;;;;;;;12.40;10.63;;;;;;;;;;5068424;28;20067;-72
2024/02/11 02:21:51;;;;;;;12.85;10.50;;;;;;;;;;5076276;28;20040;-71
2024/02/11 02:24:18;;;;;;;12.40;9.95;;;;;;;;;;5073800;28;20094;-72
2024/02/11 02:26:44;;;;;;;12.90;10.38;;;;;;;;;;5067237;28;20757;-72
2024/02/11 02:29:11;;;;;;;13.15;10.73;;;;;;;;;;5070024;28;20119;-72
2024/02/11 02:31:37;;;;;;;13.23;10.35;;;;;;;;;;5060679;28;20052;-73
2024/02/11 02:34:03;;;;;;;14.55;11.10;;;;;;;;;;5074602;28;20044;-72
2024/02/11 02:36:30;;;;;;;13.35;10.80;;;;;;;;;;5079280;28;20105;-72
2024/02/11 02:38:56;;;;;;;11.90;9.38;;;;;;;;;;5069129;28;20098;-72
2024/02/11 02:41:23;;;;;;;13.38;10.38;;;;;;;;;;5063186;28;20037;-72
2024/02/11 02:43:49;;;;;;;11.98;9.10;;;;;;;;;;5075186;28;20133;-72
2024/02/11 02:46:16;;;;;;;13.95;10.60;;;;;;;;;;5080192;28;20126;-73
2024/02/11 02:48:43;;;;;;;14.20;10.98;;;;;;;;;;5076511;28;20075;-73
2024/02/11 02:51:10;;;;;;;12.98;10.95;;;;;;;;;;5056144;28;20810;-73
2024/02/11 02:53:37;;;;;;;15.25;10.93;;;;;;;;;;5053690;28;20545;-72
2024/02/11 02:56:03;;;;;;;13.35;10.88;;;;;;;;;;5077362;28;20128;-73
2024/02/11 02:58:30;;;;;;;13.02;10.57;;;;;;;;;;5077579;28;20044;-72
2024/02/11 03:01:00;;;;;;;13.85;10.48;;;;;;;;;;5070152;28;20044;-72
2024/02/11 03:03:26;;;;;;;12.32;10.27;;;;;;;;;;5067196;28;21120;-74
2024/02/11 03:05:53;;;;;;;12.45;10.73;;;;;;;;;;5072525;28;20044;-75
2024/02/11 03:08:19;;;;;;;19.70;11.30;;;;;;;;;;5059813;28;20724;-75
2024/02/11 03:10:46;;;;;;;13.27;10.80;;;;;;;;;;5068041;28;20055;-74
2024/02/11 03:13:12;;;;;;;12.70;10.77;;;;;;;;;;5051570;28;20066;-75
2024/02/11 03:15:39;;;;;;;14.02;10.48;;;;;;;;;;5084362;28;20109;-75
2024/02/11 03:18:05;;;;;;;12.77;10.90;;;;;;;;;;5059953;28;20044;-75
2024/02/11 03:20:33;;;;;;;17.00;10.55;;;;;;;;;;5068993;28;20048;-74
2024/02/11 03:23:00;;;;;;;12.98;10.82;;;;;;;;;;5061913;28;20052;-75
2024/02/11 03:25:26;;;;;;;13.60;11.40;;;;;;;;;;5070418;28;20160;-76
2024/02/11 03:27:54;;;;;;;13.93;11.07;;;;;;;;;;5080584;28;20102;-74
2024/02/11 03:30:22;;;;;;;14.07;10.48;;;;;;;;;;5072277;28;20052;-74
2024/02/11 03:32:51;;;;;;;13.02;10.75;;;;;;;;;;5063246;28;20675;-74
2024/02/11 03:35:19;;;;;;;12.25;10.82;;;;;;;;;;5070278;28;20052;-74
2024/02/11 03:37:46;;;;;;;13.40;10.57;;;;;;;;;;5068759;28;20484;-73
2024/02/11 03:40:16;;;;;;;13.75;11.00;;;;;;;;;;5078669;28;20163;-73
2024/02/11 03:42:43;;;;;;;12.95;10.68;;;;;;;;;;5054226;28;20047;-74
2024/02/11 03:45:15;;;;;;;12.90;10.75;;;;;;;;;;5079076;28;20044;-75
2024/02/11 03:47:43;;;;;;;12.50;10.48;;;;;;;;;;5056888;28;20062;-74
2024/02/11 03:50:10;;;;;;;13.35;11.45;;;;;;;;;;5078097;28;20036;-74
2024/02/11 03:52:37;;;;;;;14.55;11.30;;;;;;;;;;5064693;28;20052;-74
2024/02/11 03:55:10;;;;;;;13.80;10.43;;;;;;;;;;5074732;28;20048;-76
2024/02/11 03:57:38;;;;;;;12.55;11.20;;;;;;;;;;5077301;28;20056;-75
2024/02/11 04:00:25;;;;;;;14.35;11.20;;;;;;;;;;5061174;28;20076;-75
2024/02/11 04:02:52;;;;;;;14.30;10.93;;;;;;;;;;5061676;28;20107;-74
2024/02/11 04:05:22;;;;;;;13.13;11.10;;;;;;;;;;5081413;28;20048;-76
2024/02/11 04:07:50;;;;;;;13.10;10.77;;;;;;;;;;5077713;28;20126;-75
2024/02/11 04:10:18;;;;;;;13.85;10.40;;;;;;;;;;5072919;28;20058;-74
2024/02/11 04:12:46;;;;;;;12.75;11.32;;;;;;;;;;5065198;28;20205;-76
2024/02/11 04:15:16;;;;;;;13.45;10.90;;;;;;;;;;5070707;28;20056;-75
2024/02/11 04:17:48;;;;;;;13.20;11.10;;;;;;;;;;5069946;28;20052;-75
2024/02/11 04:20:15;;;;;;;14.25;11.07;;;;;;;;;;5065632;28;20132;-75
2024/02/11 04:22:43;;;;;;;13.93;10.73;;;;;;;;;;5097989;28;20131;-74
2024/02/11 04:25:11;;;;;;;13.95;11.45;;;;;;;;;;5057154;28;20082;-74
2024/02/11 04:27:40;;;;;;;;;;;;;;;;;;5073176;28;20052;-73
2024/02/11 04:30:12;;;;;;;13.93;11.07;;;;;;;;;;5065412;28;20011;-76
2024/02/11 04:32:41;;;;;;;13.60;11.45;;;;;;;;;;5052745;28;20044;-75
2024/02/11 04:35:17;;;;;;;15.45;11.48;;;;;;;;;;5078962;28;20135;-73
2024/02/11 04:37:46;;;;;;;12.15;10.48;;;;;;;;;;5051072;28;20055;-74
2024/02/11 04:40:14;;;;;;;12.73;11.23;;;;;;;;;;5080760;28;20059;-74
2024/02/11 04:42:44;;;;;;;14.43;11.37;;;;;;;;;;5073864;28;20351;-74
2024/02/11 04:45:15;;;;;;;13.30;10.93;;;;;;;;;;5067083;28;20041;-74
2024/02/11 04:47:46;;;;;;;14.65;11.68;;;;;;;;;;5051104;28;20063;-75
2024/02/11 04:50:15;;;;;;;13.60;11.15;;;;;;;;;;5091466;28;20052;-74
2024/02/11 04:52:54;;;;;;;14.65;11.70;;;;;;;;;;5062360;28;20048;-74
2024/02/11 04:55:27;;;;;;;13.00;11.23;;;;;;;;;;5056815;28;20118;-74
2024/02/11 04:58:01;;;;;;;13.32;11.48;;;;;;;;;;5061243;28;20604;-75
2024/02/11 05:00:28;;;;;;;13.50;11.23;;;;;;;;;;5051385;28;20530;-74
2024/02/11 05:02:55;;;;;;;13.23;11.27;;;;;;;;;;5056808;28;20067;-75
2024/02/11 05:05:30;;;;;;;12.98;11.10;;;;;;;;;;5067049;28;20047;-75
2024/02/11 05:07:57;;;;;;;14.02;11.52;;;;;;;;;;5068278;28;20056;-74
2024/02/11 05:10:24;;;;;;;15.68;11.40;;;;;;;;;;5067723;28;20547;-74
2024/02/11 05:12:50;;;;;;;15.98;12.10;;;;;;;;;;5074864;28;20048;-74
2024/02/11 05:15:20;;;;;;;11.13;9.95;;;;;;;;;;5079213;28;20051;-74
2024/02/11 05:17:49;;;;;;;13.95;11.55;;;;;;;;;;5082727;28;20054;-73
2024/02/11 05:20:25;;;;;;;14.43;11.60;;;;;;;;;;5079750;28;20349;-74
2024/02/11 05:22:55;;;;;;;13.90;11.45;;;;;;;;;;5082647;28;20139;-74
2024/02/11 05:25:26;;;;;;;14.43;11.93;;;;;;;;;;5087979;28;20735;-72
2024/02/11 05:27:55;;;;;;;14.77;11.95;;;;;;;;;;5080217;28;20039;-75
2024/02/11 05:30:25;;;;;;;16.55;11.63;;;;;;;;;;5069506;28;20470;-73
2024/02/11 05:32:53;;;;;;;14.15;11.95;;;;;;;;;;5070426;28;20139;-72
2024/02/11 05:35:23;;;;;;;13.75;12.00;;;;;;;;;;5066553;28;20075;-73
2024/02/11 05:37:57;;;;;;;14.27;11.52;;;;;;;;;;5071378;28;20125;-74
2024/02/11 05:40:28;;;;;;;15.50;13.05;;;;;;;;;;5080625;28;20494;-72
2024/02/11 05:42:55;;;;;;;17.73;13.23;;;;;;;;;;5085937;28;20105;-72
2024/02/11 05:45:22;;;;;;;26.08;13.82;;;;;;;;;;5058331;28;20105;-72
2024/02/11 05:47:49;;;;;;;14.75;12.73;;;;;;;;;;5084111;28;20134;-72
2024/02/11 05:50:16;;;;;;;15.63;12.55;;;;;;;;;;5074214;28;20127;-72
2024/02/11 05:52:43;;;;;;;15.93;12.65;;;;;;;;;;5076375;28;20044;-73
2024/02/11 05:55:16;;;;;;;13.77;11.93;;;;;;;;;;5069075;28;20090;-72
2024/02/11 05:57:43;;;;;;;15.05;12.98;;;;;;;;;;5074399;28;20075;-72
2024/02/11 06:00:14;;;;;;;14.32;12.18;;;;;;;;;;5057014;28;20056;-72
2024/02/11 06:02:41;;;;;;;16.55;13.10;;;;;;;;;;5086795;28;20044;-72
2024/02/11 06:05:12;;;;;;;13.80;11.68;;;;;;;;;;5063719;28;20117;-73
2024/02/11 06:07:39;;;;;;;16.00;12.60;;;;;;;;;;5078848;28;20097;-73
2024/02/11 06:10:07;;;;;;;15.15;12.25;;;;;;;;;;5059633;28;20083;-72
2024/02/11 06:12:35;;;;;;;13.00;10.00;;;;;;;;;;5082582;28;20128;-73
2024/02/11 06:15:03;;;;;;;17.65;12.45;;;;;;;;;;5064969;28;20045;-73
2024/02/11 06:17:31;;;;;;;13.95;12.00;;;;;;;;;;5062669;28;20048;-72
2024/02/11 06:19:58;;;;;;;;;;;;;;;;;;5068839;28;20056;-72
2024/02/11 06:22:25;;;;;;;17.48;12.10;;;;;;;;;;5078048;28;19924;-72
2024/02/11 06:24:51;;;;;;;14.73;10.73;;;;;;;;;;5073613;28;20380;-72
2024/02/11 06:27:18;;;;;;;17.20;12.48;;;;;;;;;;5076408;28;20139;-74
2024/02/11 06:29:45;;;;;;;18.40;12.95;;;;;;;;;;5077185;28;20068;-70
2024/02/11 06:32:12;;;;;;;19.75;13.75;;;;;;;;;;5050437;28;20175;-71
2024/02/11 06:34:39;;;;;;;19.52;13.98;;;;;;;;;;5063861;28;20476;-74
2024/02/11 06:37:06;;;;;;;18.50;14.43;;;;;;;;;;5051312;28;20044;-73
2024/02/11 06:39:32;;;;;;;18.05;13.65;;;;;;;;;;5053231;28;20110;-75
2024/02/11 06:41:59;;;;;;;16.50;11.52;;;;;;;;;;5072837;28;20128;-75
2024/02/11 06:44:28;;;;;;;9.98;7.30;;;;;;;;;;5075943;28;20093;-75
2024/02/11 06:46:55;;;;;;;9.13;6.32;;;;;;;;;;5062416;28;20043;-74
2024/02/11 06:49:23;;;;;;;7.38;5.50;;;;;;;;;;5087755;28;20055;-76
2024/02/11 06:51:51;;;;;;;7.03;5.22;;;;;;;;;;5062719;28;20041;-76
2024/02/11 06:54:18;;;;;;;7.20;5.15;;;;;;;;;;5073543;28;20105;-75
2024/02/11 06:56:47;;;;;;;8.35;5.45;;;;;;;;;;5068911;28;20051;-76
2024/02/11 06:59:14;;;;;;;8.07;5.30;;;;;;;;;;5065957;28;20051;-75
2024/02/11 07:01:42;;;;;;;8.77;5.53;;;;;;;;;;5081508;28;20047;-76
2024/02/11 07:04:12;;;;;;;8.43;5.93;;;;;;;;;;5077525;28;20068;-76
2024/02/11 07:06:44;;;;;;;9.90;6.43;;;;;;;;;;5068392;28;20048;-74
2024/02/11 07:09:12;;;;;;;9.35;5.75;;;;;;;;;;5066116;28;20052;-77
2024/02/11 07:11:38;;;;;;;10.50;7.20;;;;;;;;;;5055315;28;20051;-74
2024/02/11 07:14:06;;;;;;;10.18;7.20;;;;;;;;;;5074477;28;20174;-75
2024/02/11 07:16:36;;;;;;;13.00;9.77;;;;;;;;;;5081581;28;20872;-75
2024/02/11 07:19:03;;;;;;;14.60;10.43;;;;;;;;;;5082251;28;20062;-74
2024/02/11 07:21:31;;;;;;;17.85;12.18;;;;;;;;;;5069798;28;20052;-73
2024/02/11 07:23:58;;;;;;;16.70;12.60;;;;;;;;;;5063711;28;20051;-73
2024/02/11 07:26:25;;;;;;;17.08;12.25;;;;;;;;;;5059367;28;20139;-76
2024/02/11 07:28:53;;;;;;;16.55;11.48;;;;;;;;;;5068430;28;20056;-73
2024/02/11 07:31:19;;;;;;;17.50;11.95;;;;;;;;;;5086739;28;20048;-73
2024/02/11 07:33:46;;;;;;;20.35;12.38;;;;;;;;;;5077334;28;20097;-73
2024/02/11 07:36:12;;;;;;;19.95;12.30;;;;;;;;;;5072438;28;20048;-73
2024/02/11 07:38:39;;;;;;;18.75;11.60;;;;;;;;;;5076700;28;20723;-73
2024/02/11 07:41:05;;;;;;;22.25;12.77;;;;;;;;;;5084814;28;20044;-73
2024/02/11 07:43:32;;;;;;;18.85;11.00;;;;;;;;;;5059433;28;20051;-73
2024/02/11 07:46:01;;;;;;;21.05;10.77;;;;;;;;;;5085197;28;20079;-73
2024/02/11 07:48:28;;;;;;;19.02;10.27;;;;;;;;;;5076299;28;20044;-74
2024/02/11 07:50:54;;;;;;;19.20;10.75;;;;;;;;;;5074324;28;20045;-73
2024/02/11 07:53:20;;;;;;;25.25;10.73;;;;;;;;;;5067624;28;20048;-73
2024/02/11 07:55:47;;;;;;;23.33;10.88;;;;;;;;;;5071471;28;20110;-73
2024/02/11 07:58:13;;;;;;;18.33;9.65;;;;;;;;;;5082419;28;20047;-73
2024/02/11 08:00:40;;;;;;;18.13;8.98;;;;;;;;;;5086062;28;20524;-73
2024/02/11 08:03:07;;;;;;;20.02;9.73;;;;;;;;;;5073098;28;20657;-74
2024/02/11 08:05:34;;;;;;;18.73;8.75;;;;;;;;;;5062709;28;20056;-73
2024/02/11 08:08:01;;;;;;;17.60;7.80;;;;;;;;;;5070332;28;20099;-73
2024/02/11 08:10:27;;;;;;;20.67;7.38;;;;;;;;;;5067963;28;20040;-74
2024/02/11 08:12:55;;;;;;;13.55;6.82;;;;;;;;;;5071906;28;20655;-74
2024/02/11 08:15:21;;;;;;;16.70;7.45;;;;;;;;;;5086225;28;20420;-74
2024/02/11 08:17:47;;;;;;;17.77;7.25;;;;;;;;;;5057697;28;20052;-74
2024/02/11 08:20:18;;;;;;;16.60;6.97;;;;;;;;;;5073431;28;20048;-74
2024/02/11 08:22:45;;;;;;;17.02;7.25;;;;;;;;;;5064000;28;20498;-73
2024/02/11 08:25:12;;;;;;;15.30;6.88;;;;;;;;;;5057227;28;20051;-74
2024/02/11 08:27:39;;;;;;;16.13;7.25;;;;;;;;;;5092200;28;20044;-73
2024/02/11 08:30:06;;;;;;;17.13;7.40;;;;;;;;;;5060179;28;20052;-73
2024/02/11 08:32:35;;;;;;;16.77;6.80;;;;;;;;;;5062731;28;20040;-73
2024/02/11 08:35:03;;;;;;;16.77;7.05;;;;;;;;;;5056827;28;20838;-73
2024/02/11 08:37:29;;;;;;;17.10;7.72;;;;;;;;;;5067658;28;20719;-73
2024/02/11 08:39:55;;;;;;;18.77;8.63;;;;;;;;;;5080057;28;20059;-73
2024/02/11 08:42:22;;;;;;;19.13;8.10;;;;;;;;;;5068793;28;20044;-73
2024/02/11 08:44:48;;;;;;;18.95;8.68;;;;;;;;;;5078416;28;20083;-73
2024/02/11 08:47:15;;;;;;;22.60;8.88;;;;;;;;;;5050451;28;20044;-73
2024/02/11 08:49:43;;;;;;;23.85;9.80;;;;;;;;;;5087666;28;20055;-73
2024/02/11 08:52:12;;;;;;;24.65;11.20;;;;;;;;;;5063370;28;20059;-73
2024/02/11 08:54:39;;;;;;;21.00;10.77;;;;;;;;;;5046171;28;20063;-73
2024/02/11 08:57:06;;;;;;;21.65;11.00;;;;;;;;;;5084272;28;20074;-74
2024/02/11 08:59:33;;;;;;;23.20;11.70;;;;;;;;;;5067402;28;20052;-74
2024/02/11 09:02:00;;;;;;;24.65;12.35;;;;;;;;;;5083435;28;20081;-74
2024/02/11 09:04:27;;;;;;;20.27;11.82;;;;;;;;;;5085317;28;20644;-74
2024/02/11 09:06:55;;;;;;;27.55;13.98;;;;;;;;;;5049717;28;20135;-74
2024/02/11 09:09:29;;;;;;;23.95;13.68;;;;;;;;;;5085088;28;20058;-73
2024/02/11 09:11:57;;;;;;;23.85;12.85;;;;;;;;;;5068304;28;20041;-76
2024/02/11 09:14:25;;;;;;;24.30;12.48;;;;;;;;;;5079799;28;20044;-76
2024/02/11 09:16:53;;;;;;;23.60;13.00;;;;;;;;;;5060632;28;20075;-73
2024/02/11 09:19:21;;;;;;;22.45;12.85;;;;;;;;;;5083154;28;20466;-74
2024/02/11 09:21:47;;;;;;;22.73;12.95;;;;;;;;;;5084382;28;20052;-73
2024/02/11 09:24:14;;;;;;;24.63;12.35;;;;;;;;;;5066787;28;20076;-76
2024/02/11 09:26:40;;;;;;;24.73;12.82;;;;;;;;;;5079633;28;20054;-73
2024/02/11 09:29:07;;;;;;;19.27;12.02;;;;;;;;;;5061271;28;20040;-73
2024/02/11 09:31:34;;;;;;;20.92;11.85;;;;;;;;;;5074917;28;20056;-75
2024/02/11 09:34:03;;;;;;;18.30;10.30;;;;;;;;;;5089681;28;20377;-73
2024/02/11 09:36:30;;;;;;;19.05;11.55;;;;;;;;;;5066896;28;20075;-72
2024/02/11 09:38:56;;;;;;;21.85;11.27;;;;;;;;;;5069028;28;20048;-76
2024/02/11 09:41:23;;;;;;;21.45;10.57;;;;;;;;;;5081968;28;20040;-75
2024/02/11 09:43:51;;;;;;;21.33;11.43;;;;;;;;;;5065523;28;20037;-72
2024/02/11 09:46:19;;;;;;;18.75;10.50;;;;;;;;;;5067993;28;20067;-75
2024/02/11 09:48:46;;;;;;;25.05;11.85;;;;;;;;;;5060453;28;20088;-75
2024/02/11 09:51:14;;;;;;;21.05;10.85;;;;;;;;;;5079312;28;20123;-75
2024/02/11 09:53:42;;;;;;;19.95;10.23;;;;;;;;;;5067087;28;20043;-75
2024/02/11 09:56:08;;;;;;;23.20;11.73;;;;;;;;;;5072205;28;20458;-75
2024/02/11 09:58:35;;;;;;;25.15;11.75;;;;;;;;;;5062442;28;20052;-75
2024/02/11 10:01:02;;;;;;;19.10;10.85;;;;;;;;;;5065423;28;20102;-75
2024/02/11 10:03:29;;;;;;;23.65;11.25;;;;;;;;;;5079281;28;20831;-72
2024/02/11 10:05:58;;;;;;;24.25;11.30;;;;;;;;;;5083174;28;20118;-72
2024/02/11 10:08:24;;;;;;;;;;;;;;;;;;5088615;28;20139;-71
2024/02/11 10:10:51;;;;;;;24.90;11.43;;;;;;;;;;5083311;27;19924;-71
2024/02/11 10:13:20;;;;;;;24.23;11.40;;;;;;;;;;5075103;28;20052;-70
2024/02/11 10:15:47;;;;;;;23.50;11.15;;;;;;;;;;5075125;28;20051;-71
2024/02/11 10:18:17;;;;;;;26.38;13.10;;;;;;;;;;5083438;28;20043;-73
2024/02/11 10:20:46;;;;;;;26.27;12.10;;;;;;;;;;5070356;28;20051;-71
2024/02/11 10:23:15;;;;;;;25.92;12.15;;;;;;;;;;5074866;28;20124;-73
2024/02/11 10:25:47;;;;;;;28.33;13.18;;;;;;;;;;5078468;28;20138;-73
2024/02/11 10:28:14;;;;;;;27.38;13.95;;;;;;;;;;5074126;28;20044;-72
2024/02/11 10:30:40;;;;;;;26.20;12.82;;;;;;;;;;5077654;28;20054;-74
2024/02/11 10:33:08;;;;;;;35.63;14.00;;;;;;;;;;5073373;28;20404;-71
2024/02/11 10:35:35;;;;;;;27.63;13.98;;;;;;;;;;5061653;28;20048;-72
2024/02/11 10:38:06;;;;;;;24.92;13.50;;;;;;;;;;5054941;28;20059;-72
2024/02/11 10:40:37;;;;;;;27.13;12.68;;;;;;;;;;5058696;28;20118;-74
2024/02/11 10:43:05;;;;;;;28.65;14.35;;;;;;;;;;5070136;28;20046;-70
2024/02/11 10:45:31;;;;;;;28.45;13.98;;;;;;;;;;5075103;28;20472;-72
2024/02/11 10:47:58;;;;;;;29.23;12.80;;;;;;;;;;5062864;28;20050;-72
2024/02/11 10:50:24;;;;;;;19.50;11.68;;;;;;;;;;5077899;28;20051;-70
2024/02/11 10:52:51;;;;;;;28.77;12.90;;;;;;;;;;5060640;28;20049;-69
2024/02/11 10:55:19;;;;;;;22.88;12.43;;;;;;;;;;5074833;28;20072;-69
2024/02/11 10:57:48;;;;;;;23.98;10.82;;;;;;;;;;5076422;28;20048;-70
2024/02/11 11:00:17;;;;;;;25.92;11.00;;;;;;;;;;5070777;28;20055;-73
2024/02/11 11:02:44;;;;;;;27.20;10.57;;;;;;;;;;5054688;28;20044;-71
2024/02/11 11:05:20;;;;;;;29.17;11.13;;;;;;;;;;5062859;28;20140;-72
2024/02/11 11:07:50;;;;;;;24.15;10.30;;;;;;;;;;5060292;28;20952;-71
2024/02/11 11:10:18;;;;;;;21.92;10.75;;;;;;;;;;5061874;28;20048;-73
2024/02/11 11:12:49;;;;;;;22.77;10.40;;;;;;;;;;5079963;28;20046;-69
2024/02/11 11:15:22;;;;;;;34.47;10.40;;;;;;;;;;5067969;28;20052;-74
2024/02/11 11:17:49;;;;;;;22.98;9.23;;;;;;;;;;5061559;28;20466;-73
2024/02/11 11:20:17;;;;;;;27.25;9.48;;;;;;;;;;5078123;28;20075;-73
2024/02/11 11:22:51;;;;;;;28.27;10.10;;;;;;;;;;5072075;28;20545;-76
2024/02/11 11:25:18;;;;;;;21.55;9.30;;;;;;;;;;5072145;28;20083;-74
2024/02/11 11:27:46;;;;;;;18.70;8.45;;;;;;;;;;5071735;28;20491;-73
2024/02/11 11:30:14;;;;;;;21.98;8.48;;;;;;;;;;5085785;28;20370;-74
2024/02/11 11:32:45;;;;;;;20.73;8.50;;;;;;;;;;5056728;28;20049;-74
2024/02/11 11:35:13;;;;;;;23.45;8.68;;;;;;;;;;5067394;28;20050;-74
2024/02/11 11:37:40;;;;;;;27.43;8.70;;;;;;;;;;5083619;28;20047;-74
2024/02/11 11:40:08;;;;;;;21.27;8.77;;;;;;;;;;5063493;28;20292;-74
2024/02/11 11:42:34;;;;;;;19.40;8.17;;;;;;;;;;5088761;28;20098;-74
2024/02/11 11:45:07;;;;;;;21.38;8.52;;;;;;;;;;5079941;28;20356;-74
2024/02/11 11:47:34;;;;;;;14.95;8.23;;;;;;;;;;5084692;28;20044;-74
2024/02/11 11:50:02;;;;;;;17.77;8.10;;;;;;;;;;5071554;28;20079;-74
2024/02/11 11:52:29;;;;;;;21.40;9.60;;;;;;;;;;5073387;28;20047;-73
2024/02/11 11:54:55;;;;;;;20.02;8.90;;;;;;;;;;5070706;28;20714;-74
2024/02/11 11:57:21;;;;;;;23.77;9.32;;;;;;;;;;5071946;28;20047;-74
2024/02/11 11:59:54;;;;;;;21.10;10.10;;;;;;;;;;5071115;28;20091;-74
2024/02/11 12:02:21;;;;;;;20.92;8.23;;;;;;;;;;5058793;28;20052;-73
2024/02/11 12:04:48;;;;;;;23.83;7.90;;;;;;;;;;5067972;28;20186;-74
2024/02/11 12:07:14;;;;;;;21.60;8.45;;;;;;;;;;5085780;28;20414;-74
2024/02/11 12:09:41;;;;;;;22.52;8.63;;;;;;;;;;5065655;28;20091;-74
2024/02/11 12:12:07;;;;;;;15.93;7.60;;;;;;;;;;5067063;28;20792;-74
2024/02/11 12:14:36;;;;;;;16.42;7.78;;;;;;;;;;5072777;28;20048;-74
2024/02/11 12:17:04;;;;;;;21.08;8.32;;;;;;;;;;5069420;28;20052;-74
2024/02/11 12:19:39;;;;;;;16.67;7.45;;;;;;;;;;5074249;28;20568;-74
2024/02/11 12:22:06;;;;;;;19.48;7.35;;;;;;;;;;5083006;28;20122;-76
2024/02/11 12:24:36;;;;;;;19.65;8.13;;;;;;;;;;5073275;28;20055;-73
2024/02/11 12:27:04;;;;;;;20.45;8.00;;;;;;;;;;5091574;28;20047;-73
2024/02/11 12:29:31;;;;;;;18.23;7.83;;;;;;;;;;5070393;28;20162;-74
2024/02/11 12:31:57;;;;;;;23.73;7.85;;;;;;;;;;5078673;28;20059;-73
2024/02/11 12:34:29;;;;;;;20.80;7.72;;;;;;;;;;5081819;28;20056;-74
2024/02/11 12:36:59;;;;;;;18.67;8.30;;;;;;;;;;5078312;28;20044;-74
2024/02/11 12:39:26;;;;;;;18.95;7.38;;;;;;;;;;5066609;28;20071;-73
2024/02/11 12:41:53;;;;;;;21.27;8.18;;;;;;;;;;5086074;28;20055;-73
2024/02/11 12:44:22;;;;;;;26.58;9.10;;;;;;;;;;5076595;28;20634;-76
2024/02/11 12:46:50;;;;;;;15.63;7.47;;;;;;;;;;5072653;28;20039;-73
2024/02/11 12:49:16;;;;;;;19.65;7.90;;;;;;;;;;5076588;28;20122;-73
2024/02/11 12:51:43;;;;;;;18.65;6.97;;;;;;;;;;5082586;28;20044;-74
2024/02/11 12:54:10;;;;;;;19.35;7.63;;;;;;;;;;5088861;28;20059;-74
2024/02/11 12:56:37;;;;;;;21.23;8.85;;;;;;;;;;5068716;28;20055;-74
2024/02/11 12:59:04;;;;;;;23.95;7.80;;;;;;;;;;5071321;28;20084;-74
2024/02/11 13:01:30;;;;;;;19.90;7.88;;;;;;;;;;5058877;28;20051;-74
2024/02/11 13:03:56;;;;;;;17.00;7.03;;;;;;;;;;5067557;28;20052;-74
2024/02/11 13:06:23;;;;;;;20.10;7.50;;;;;;;;;;5097846;27;20048;-73
2024/02/11 13:08:49;;;;;;;21.98;8.15;;;;;;;;;;5065239;28;20131;-74
2024/02/11 13:11:16;;;;;;;23.02;7.47;;;;;;;;;;5084426;28;20051;-74
2024/02/11 13:13:49;;;;;;;25.67;8.15;;;;;;;;;;5073852;28;20098;-76
2024/02/11 13:16:16;;;;;;;20.45;7.68;;;;;;;;;;5085628;28;20502;-73
2024/02/11 13:18:43;;;;;;;21.15;7.22;;;;;;;;;;5069919;28;20052;-73
2024/02/11 13:21:11;;;;;;;14.43;7.20;;;;;;;;;;5087599;28;20054;-74
2024/02/11 13:23:38;;;;;;;17.63;8.70;;;;;;;;;;5076572;28;20056;-74
2024/02/11 13:26:05;;;;;;;16.15;7.18;;;;;;;;;;5081345;28;20139;-76
2024/02/11 13:28:32;;;;;;;19.73;8.85;;;;;;;;;;5084802;28;20044;-73
2024/02/11 13:30:59;;;;;;;18.65;8.30;;;;;;;;;;5073315;28;20504;-73
2024/02/11 13:33:40;;;;;;;21.85;7.47;;;;;;;;;;5080388;28;20087;-73
2024/02/11 13:36:10;;;;;;;19.58;8.10;;;;;;;;;;5077518;28;20048;-69
2024/02/11 13:38:36;;;;;;;27.40;9.02;;;;;;;;;;5079639;28;20131;-71
2024/02/11 13:41:04;;;;;;;17.27;7.15;;;;;;;;;;5080747;28;20110;-74
2024/02/11 13:43:32;;;;;;;20.20;8.93;;;;;;;;;;5067906;28;20061;-70
2024/02/11 13:45:59;;;;;;;15.63;7.22;;;;;;;;;;5063414;28;20060;-70
2024/02/11 13:48:25;;;;;;;18.73;8.18;;;;;;;;;;5070828;28;20472;-73
2024/02/11 13:50:52;;;;;;;17.02;7.68;;;;;;;;;;5086429;28;20411;-72
2024/02/11 13:53:19;;;;;;;16.85;7.07;;;;;;;;;;5081537;28;20048;-70
2024/02/11 13:55:45;;;;;;;21.23;8.02;;;;;;;;;;5077958;28;20514;-70
2024/02/11 13:58:12;;;;;;;15.82;6.75;;;;;;;;;;5079086;28;20106;-70
2024/02/11 14:00:38;;;;;;;19.02;7.15;;;;;;;;;;5055722;28;20055;-70
2024/02/11 14:03:08;;;;;;;17.15;7.57;;;;;;;;;;5076765;28;20405;-70
2024/02/11 14:05:35;;;;;;;17.08;7.30;;;;;;;;;;5070158;28;20049;-70
2024/02/11 14:08:03;;;;;;;17.58;7.43;;;;;;;;;;5076527;28;20121;-70
2024/02/11 14:10:30;;;;;;;16.77;6.93;;;;;;;;;;5071871;28;20048;-71
2024/02/11 14:13:00;;;;;;;15.65;7.00;;;;;;;;;;5070814;28;20040;-70
2024/02/11 14:15:27;;;;;;;19.17;7.72;;;;;;;;;;5088955;28;20051;-71
2024/02/11 14:17:56;;;;;;;21.15;7.63;;;;;;;;;;5085260;28;20201;-70
2024/02/11 14:20:22;;;;;;;19.02;7.05;;;;;;;;;;5074786;28;20040;-71
2024/02/11 14:22:49;;;;;;;19.63;6.82;;;;;;;;;;5086411;28;20040;-71
2024/02/11 14:25:18;;;;;;;15.85;7.95;;;;;;;;;;5051772;28;20048;-70
2024/02/11 14:27:47;;;;;;;17.75;7.25;;;;;;;;;;5079704;28;20067;-69